createdAt,value
2022-11-29T00:01:23.842Z,73.95
2022-11-29T00:04:35.630Z,74.45
2022-11-29T00:07:47.339Z,78.98
2022-11-29T00:10:59.187Z,70.08
2022-11-29T00:14:11.985Z,69.43
2022-11-29T00:17:23.708Z,64.33
2022-11-29T00:20:35.641Z,72.68
2022-11-29T00:23:47.451Z,72.70
2022-11-29T00:26:59.464Z,70.68
2022-11-29T00:30:15.151Z,69.00
2022-11-29T00:33:26.827Z,69.75
2022-11-29T00:36:39.024Z,73.63
2022-11-29T00:39:50.692Z,71.38
2022-11-29T00:43:02.389Z,71.05
2022-11-29T00:46:15.322Z,65.65
2022-11-29T00:49:27.267Z,67.40
2022-11-29T00:52:39.215Z,66.30
2022-11-29T00:55:53.353Z,67.60
2022-11-29T00:59:05.148Z,73.15
2022-11-29T01:02:17.197Z,58.40
2022-11-29T01:05:29.324Z,62.03
2022-11-29T01:08:41.400Z,61.13
2022-11-29T01:11:54.691Z,65.73
2022-11-29T01:15:07.210Z,65.60
2022-11-29T01:18:18.864Z,66.10
2022-11-29T01:21:31.237Z,61.50
2022-11-29T01:24:43.074Z,63.05
2022-11-29T01:27:56.286Z,61.58
2022-11-29T01:31:13.218Z,68.75
2022-11-29T01:34:25.046Z,64.65
2022-11-29T01:37:37.319Z,63.20
2022-11-29T01:40:49.212Z,75.08
2022-11-29T01:44:08.237Z,92.90
2022-11-29T01:47:20.380Z,90.90
2022-11-29T01:50:32.469Z,86.60
2022-11-29T01:53:44.500Z,76.18
2022-11-29T01:57:00.292Z,86.47
2022-11-29T02:00:19.553Z,98.03
2022-11-29T02:03:31.816Z,87.23
2022-11-29T02:06:45.515Z,92.78
2022-11-29T02:09:57.227Z,132.83
2022-11-29T02:13:15.654Z,82.38
2022-11-29T02:16:32.755Z,93.18
2022-11-29T02:20:20.462Z,83.30
2022-11-29T02:24:07.970Z,79.05
2022-11-29T02:27:51.541Z,83.65
2022-11-29T02:31:47.310Z,92.75
2022-11-29T02:35:09.685Z,75.18
2022-11-29T02:38:58.951Z,106.23
2022-11-29T02:42:56.867Z,87.15
2022-11-29T02:46:24.923Z,104.83
2022-11-29T02:49:54.364Z,77.08
2022-11-29T02:53:16.344Z,74.78
2022-11-29T02:56:36.367Z,79.80
2022-11-29T02:59:57.171Z,99.90
2022-11-29T03:03:14.603Z,148.18
2022-11-29T03:06:34.494Z,77.10
2022-11-29T03:09:49.110Z,76.45
2022-11-29T03:13:01.710Z,70.50
2022-11-29T03:16:21.034Z,76.18
2022-11-29T03:19:53.670Z,93.97
2022-11-29T03:23:26.372Z,79.05
2022-11-29T03:26:43.338Z,68.65
2022-11-29T03:33:14.171Z,90.08
2022-11-29T03:36:35.591Z,116.48
2022-11-29T03:39:54.088Z,64.95
2022-11-29T03:43:10.750Z,88.00
2022-11-29T03:46:30.437Z,67.35
2022-11-29T03:49:48.049Z,106.60
2022-11-29T03:53:05.187Z,129.40
2022-11-29T03:56:34.268Z,69.43
2022-11-29T04:00:03.312Z,72.33
2022-11-29T04:03:52.845Z,85.45
2022-11-29T04:07:17.049Z,72.28
2022-11-29T04:10:50.206Z,84.30
2022-11-29T04:14:38.261Z,72.13
2022-11-29T04:19:02.362Z,62.85
2022-11-29T04:22:59.461Z,73.80
2022-11-29T04:26:50.940Z,83.40
2022-11-29T04:30:24.215Z,72.65
2022-11-29T04:34:15.736Z,75.85
2022-11-29T04:37:58.223Z,67.08
2022-11-29T04:41:32.550Z,66.45
2022-11-29T04:45:03.181Z,81.00
2022-11-29T04:48:30.182Z,72.53
2022-11-29T04:52:09.286Z,67.73
2022-11-29T04:55:31.220Z,73.95
2022-11-29T04:58:48.185Z,63.48
2022-11-29T05:02:10.272Z,85.75
2022-11-29T05:05:34.175Z,79.08
2022-11-29T05:08:57.087Z,69.93
2022-11-29T05:12:14.823Z,65.93
2022-11-29T05:15:53.076Z,71.00
2022-11-29T05:19:36.709Z,97.70
2022-11-29T05:22:57.160Z,88.15
2022-11-29T05:26:16.321Z,75.20
2022-11-29T05:29:37.456Z,101.53
2022-11-29T05:33:04.536Z,66.43
2022-11-29T05:36:24.536Z,85.90
2022-11-29T05:39:52.557Z,88.53
2022-11-29T05:43:19.178Z,88.50
2022-11-29T05:46:37.001Z,60.63
2022-11-29T05:49:56.466Z,72.40
2022-11-29T05:53:17.944Z,58.23
2022-11-29T05:56:37.060Z,66.13
2022-11-29T05:59:51.831Z,68.10
2022-11-29T06:03:11.041Z,65.58
2022-11-29T06:06:30.349Z,60.70
2022-11-29T06:09:48.311Z,64.58
2022-11-29T06:13:10.516Z,67.83
2022-11-29T06:17:02.765Z,60.15
2022-11-29T06:20:48.711Z,76.05
2022-11-29T06:24:34.572Z,60.68
2022-11-29T06:28:13.860Z,65.13
2022-11-29T06:31:31.244Z,66.93
2022-11-29T06:34:51.103Z,62.08
2022-11-29T06:38:07.776Z,65.85
2022-11-29T06:41:26.512Z,66.85
2022-11-29T06:44:40.036Z,58.75
2022-11-29T06:47:57.071Z,58.85
2022-11-29T06:51:14.841Z,87.13
2022-11-29T06:54:38.744Z,77.83
2022-11-29T06:58:07.536Z,67.25
2022-11-29T07:01:27.884Z,68.48
2022-11-29T07:04:59.205Z,68.88
2022-11-29T07:08:17.307Z,67.05
2022-11-29T07:11:31.749Z,70.90
2022-11-29T07:14:45.742Z,113.43
2022-11-29T07:18:22.064Z,90.40
2022-11-29T07:21:42.875Z,64.23
2022-11-29T07:25:04.200Z,71.65
2022-11-29T07:28:26.479Z,71.53
2022-11-29T07:31:48.121Z,85.10
2022-11-29T07:35:06.726Z,79.08
2022-11-29T07:38:24.664Z,73.58
2022-11-29T07:41:43.420Z,83.90
2022-11-29T07:45:04.246Z,85.30
2022-11-29T07:48:19.300Z,89.85
2022-11-29T07:51:31.637Z,81.83
2022-11-29T07:54:43.791Z,80.13
2022-11-29T07:57:56.847Z,80.22
2022-11-29T08:01:09.304Z,69.15
2022-11-29T08:04:21.135Z,79.15
2022-11-29T08:07:33.091Z,81.45
2022-11-29T08:10:45.758Z,91.13
2022-11-29T08:14:01.542Z,78.35
2022-11-29T08:17:13.429Z,64.98
2022-11-29T08:20:25.766Z,68.33
2022-11-29T08:23:37.472Z,70.05
2022-11-29T08:26:49.318Z,62.48
2022-11-29T08:30:01.381Z,60.58
2022-11-29T08:33:13.195Z,67.55
2022-11-29T08:36:26.868Z,80.03
2022-11-29T08:39:38.705Z,86.58
2022-11-29T08:42:50.613Z,77.00
2022-11-29T08:46:02.607Z,68.30
2022-11-29T08:49:14.488Z,62.85
2022-11-29T08:52:41.330Z,62.60
2022-11-29T08:55:53.284Z,61.53
2022-11-29T08:59:05.148Z,53.30
2022-11-29T09:02:17.446Z,56.88
2022-11-29T09:05:29.978Z,65.55
2022-11-29T09:08:43.797Z,53.68
2022-11-29T09:11:55.725Z,51.33
2022-11-29T09:15:07.925Z,44.98
2022-11-29T09:18:20.033Z,51.18
2022-11-29T09:21:36.852Z,46.65
2022-11-29T09:24:48.748Z,51.15
2022-11-29T09:28:03.540Z,48.18
2022-11-29T09:31:20.099Z,54.93
2022-11-29T09:34:32.072Z,60.95
2022-11-29T09:37:47.490Z,67.93
2022-11-29T09:41:02.578Z,72.90
2022-11-29T09:44:20.945Z,57.05
2022-11-29T09:47:52.821Z,55.98
2022-11-29T09:51:14.447Z,57.63
2022-11-29T09:54:36.011Z,62.18
2022-11-29T09:57:49.910Z,65.75
2022-11-29T10:01:07.779Z,66.65
2022-11-29T10:04:24.449Z,64.80
2022-11-29T10:07:42.040Z,68.20
2022-11-29T10:10:57.286Z,52.53
2022-11-29T10:14:17.997Z,56.15
2022-11-29T10:17:38.611Z,58.85
2022-11-29T10:20:54.149Z,59.28
2022-11-29T10:24:11.672Z,71.83
2022-11-29T10:27:29.454Z,149.50
2022-11-29T10:30:43.233Z,48.88
2022-11-29T10:33:56.451Z,47.78
2022-11-29T10:37:08.984Z,53.90
2022-11-29T10:40:25.870Z,54.10
2022-11-29T10:43:37.820Z,53.53
2022-11-29T10:46:49.713Z,49.63
2022-11-29T10:50:02.002Z,47.00
2022-11-29T10:53:17.481Z,47.45
2022-11-29T10:56:35.212Z,41.98
2022-11-29T10:59:47.108Z,55.43
2022-11-29T11:02:58.871Z,56.93
2022-11-29T11:06:18.859Z,57.65
2022-11-29T11:09:38.359Z,56.23
2022-11-29T11:13:06.989Z,55.40
2022-11-29T11:16:24.539Z,65.80
2022-11-29T11:19:38.650Z,57.73
2022-11-29T11:22:50.659Z,54.60
2022-11-29T11:26:09.430Z,52.53
2022-11-29T11:29:28.784Z,54.33
2022-11-29T11:32:40.876Z,49.70
2022-11-29T11:36:17.425Z,57.83
2022-11-29T11:39:32.476Z,55.88
2022-11-29T11:42:46.540Z,53.05
2022-11-29T11:46:00.901Z,52.13
2022-11-29T11:49:23.779Z,106.93
2022-11-29T11:52:42.806Z,126.73
2022-11-29T11:56:06.374Z,57.58
2022-11-29T11:59:26.658Z,51.45
2022-11-29T12:02:44.978Z,47.75
2022-11-29T12:06:01.277Z,52.13
2022-11-29T12:09:22.526Z,50.87
2022-11-29T12:12:38.197Z,50.13
2022-11-29T12:15:53.931Z,52.60
2022-11-29T12:19:14.916Z,54.43
2022-11-29T12:22:32.059Z,60.15
2022-11-29T12:25:49.598Z,51.40
2022-11-29T12:29:02.394Z,58.00
2022-11-29T12:32:30.406Z,56.15
2022-11-29T12:36:12.873Z,56.95
2022-11-29T12:39:37.462Z,60.83
2022-11-29T12:42:57.141Z,56.78
2022-11-29T12:46:14.094Z,53.28
2022-11-29T12:49:31.520Z,46.43
2022-11-29T12:52:49.573Z,53.50
2022-11-29T12:56:10.937Z,49.28
2022-11-29T12:59:34.487Z,50.88
2022-11-29T13:03:04.409Z,45.63
2022-11-29T13:06:25.879Z,52.00
2022-11-29T13:10:00.471Z,48.13
2022-11-29T13:13:21.129Z,49.28
2022-11-29T13:16:46.866Z,43.00
2022-11-29T13:20:02.682Z,48.35
2022-11-29T13:23:39.175Z,56.45
2022-11-29T13:26:39.021Z,60.03
2022-11-29T13:29:51.175Z,48.83
2022-11-29T13:33:08.881Z,47.93
2022-11-29T13:36:25.629Z,51.70
2022-11-29T13:39:49.193Z,51.70
2022-11-29T13:43:08.374Z,52.80
2022-11-29T13:46:29.986Z,57.38
2022-11-29T13:50:04.119Z,52.85
2022-11-29T13:53:23.754Z,46.95
2022-11-29T13:56:47.037Z,44.48
2022-11-29T13:59:59.073Z,47.95
2022-11-29T14:03:38.428Z,52.58
2022-11-29T14:06:50.471Z,47.93
2022-11-29T14:10:08.323Z,44.60
2022-11-29T14:13:22.018Z,46.15
2022-11-29T14:16:39.978Z,47.08
2022-11-29T14:19:51.943Z,55.55
2022-11-29T14:23:39.020Z,65.53
2022-11-29T14:26:50.919Z,56.55
2022-11-29T14:30:03.093Z,58.30
2022-11-29T14:33:32.576Z,60.15
2022-11-29T14:36:55.903Z,57.38
2022-11-29T14:40:18.028Z,51.18
2022-11-29T14:43:34.639Z,58.35
2022-11-29T14:46:46.730Z,52.78
2022-11-29T14:50:00.907Z,57.55
2022-11-29T14:53:29.882Z,51.18
2022-11-29T14:56:47.461Z,54.98
2022-11-29T15:00:00.528Z,59.18
2022-11-29T15:03:18.536Z,54.43
2022-11-29T15:06:41.641Z,73.63
2022-11-29T15:09:52.757Z,55.33
2022-11-29T15:13:06.680Z,51.40
2022-11-29T15:16:49.989Z,54.93
2022-11-29T15:20:28.990Z,56.13
2022-11-29T15:23:49.415Z,54.88
2022-11-29T15:27:06.239Z,60.18
2022-11-29T15:30:36.959Z,52.15
2022-11-29T15:33:52.651Z,58.43
2022-11-29T15:37:05.369Z,57.05
2022-11-29T15:40:23.532Z,61.25
2022-11-29T15:43:40.243Z,68.75
2022-11-29T15:46:51.989Z,60.50
2022-11-29T15:50:03.840Z,67.45
2022-11-29T15:53:21.821Z,62.23
2022-11-29T15:56:39.917Z,69.70
2022-11-29T15:59:56.008Z,69.18
2022-11-29T16:03:09.703Z,83.50
2022-11-29T16:06:31.553Z,82.15
2022-11-29T16:09:47.597Z,76.78
2022-11-29T16:13:02.458Z,71.13
2022-11-29T16:16:20.670Z,65.30
2022-11-29T16:19:40.685Z,71.93
2022-11-29T16:22:54.812Z,64.10
2022-11-29T16:26:14.822Z,64.03
2022-11-29T16:29:33.078Z,73.83
2022-11-29T16:32:48.966Z,79.68
2022-11-29T16:36:17.369Z,66.30
2022-11-29T16:39:31.226Z,64.00
2022-11-29T16:42:43.335Z,65.60
2022-11-29T16:46:03.143Z,60.93
2022-11-29T16:49:42.131Z,65.03
2022-11-29T16:52:56.739Z,60.63
2022-11-29T16:56:09.000Z,59.25
2022-11-29T16:59:27.140Z,63.13
2022-11-29T17:02:36.106Z,57.68
2022-11-29T17:05:48.137Z,61.15
2022-11-29T17:09:02.260Z,66.13
2022-11-29T17:12:17.622Z,62.18
2022-11-29T17:15:29.515Z,62.98
2022-11-29T17:18:42.092Z,64.95
2022-11-29T17:21:54.427Z,65.50
2022-11-29T17:25:06.220Z,58.15
2022-11-29T17:28:17.931Z,59.83
2022-11-29T17:31:31.409Z,58.65
2022-11-29T17:34:43.595Z,54.90
2022-11-29T17:37:55.499Z,53.25
2022-11-29T17:41:14.027Z,54.03
2022-11-29T17:47:35.657Z,56.83
2022-11-29T17:50:47.863Z,53.95
2022-11-29T17:54:01.007Z,54.68
2022-11-29T17:57:12.678Z,57.68
2022-11-29T18:00:27.027Z,60.70
2022-11-29T18:03:40.325Z,57.33
2022-11-29T18:06:53.578Z,60.80
2022-11-29T18:10:05.251Z,77.73
2022-11-29T18:13:16.933Z,73.10
2022-11-29T18:16:30.909Z,87.35
2022-11-29T18:19:43.180Z,61.73
2022-11-29T18:22:56.313Z,60.25
2022-11-29T18:26:11.099Z,58.50
2022-11-29T18:29:23.294Z,64.73
2022-11-29T18:32:36.188Z,76.75
2022-11-29T18:35:47.896Z,80.92
2022-11-29T18:39:05.184Z,59.38
2022-11-29T18:42:17.050Z,101.58
2022-11-29T18:45:28.981Z,79.68
2022-11-29T18:48:41.381Z,68.15
2022-11-29T18:51:54.896Z,83.08
2022-11-29T18:55:06.812Z,64.25
2022-11-29T18:58:18.590Z,60.95
2022-11-29T19:01:32.144Z,66.18
2022-11-29T19:04:44.339Z,58.88
2022-11-29T19:07:56.330Z,65.53
2022-11-29T19:11:11.928Z,66.08
2022-11-29T19:14:24.018Z,73.20
2022-11-29T19:17:41.693Z,61.58
2022-11-29T19:20:50.300Z,69.28
2022-11-29T19:24:05.526Z,65.00
2022-11-29T19:27:17.369Z,62.83
2022-11-29T19:30:30.074Z,67.78
2022-11-29T19:33:44.916Z,71.15
2022-11-29T19:36:56.612Z,74.73
2022-11-29T19:40:12.763Z,76.75
2022-11-29T19:43:24.514Z,71.95
2022-11-29T19:46:39.599Z,77.23
2022-11-29T19:49:51.675Z,69.50
2022-11-29T19:53:03.830Z,68.25
2022-11-29T19:56:20.501Z,79.63
2022-11-29T19:59:33.516Z,71.23
2022-11-29T20:02:45.358Z,71.08
2022-11-29T20:06:07.301Z,72.55
2022-11-29T20:09:20.005Z,78.85
2022-11-29T20:12:32.396Z,77.25
2022-11-29T20:15:44.313Z,74.35
2022-11-29T20:18:57.824Z,77.78
2022-11-29T20:22:09.666Z,74.43
2022-11-29T20:25:21.608Z,82.90
2022-11-29T20:28:35.461Z,75.63
2022-11-29T20:31:51.047Z,79.55
2022-11-29T20:35:04.172Z,87.38
2022-11-29T20:38:25.909Z,80.48
2022-11-29T20:41:42.968Z,77.23
2022-11-29T20:48:18.184Z,83.55
2022-11-29T20:51:37.552Z,78.65
2022-11-29T20:54:49.695Z,76.40
2022-11-29T20:58:02.238Z,82.28
2022-11-29T21:01:15.169Z,77.90
2022-11-29T21:04:28.275Z,86.13
2022-11-29T21:07:41.166Z,82.65
2022-11-29T21:10:53.669Z,85.28
2022-11-29T21:14:08.234Z,80.85
2022-11-29T21:17:21.759Z,89.55
2022-11-29T21:20:35.222Z,86.47
2022-11-29T21:24:04.541Z,94.58
2022-11-29T21:27:23.551Z,80.98
2022-11-29T21:30:36.639Z,95.48
2022-11-29T21:33:49.996Z,88.45
2022-11-29T21:37:05.525Z,90.70
2022-11-29T21:40:19.610Z,85.98
2022-11-29T21:44:04.516Z,89.73
2022-11-29T21:46:45.587Z,92.48
2022-11-29T21:49:57.626Z,97.08
2022-11-29T21:53:09.773Z,84.25
2022-11-29T21:56:21.739Z,90.08
2022-11-29T21:59:33.684Z,91.60
2022-11-29T22:02:45.537Z,87.05
2022-11-29T22:05:57.885Z,94.63
2022-11-29T22:09:10.708Z,87.40
2022-11-29T22:12:37.759Z,93.23
2022-11-29T22:15:37.639Z,91.73
2022-11-29T22:18:49.473Z,90.15
2022-11-29T22:22:03.996Z,93.93
2022-11-29T22:25:16.568Z,87.48
2022-11-29T22:28:28.389Z,86.00
2022-11-29T22:31:41.409Z,89.40
2022-11-29T22:34:54.307Z,91.50
2022-11-29T22:38:06.086Z,88.95
2022-11-29T22:41:19.692Z,92.20
2022-11-29T22:44:31.794Z,92.35
2022-11-29T22:47:43.496Z,87.15
2022-11-29T22:50:55.280Z,96.23
2022-11-29T22:54:09.303Z,93.68
2022-11-29T22:57:21.172Z,94.58
2022-11-29T23:00:34.824Z,94.50
2022-11-29T23:03:48.542Z,96.30
2022-11-29T23:07:00.464Z,88.78
2022-11-29T23:10:14.941Z,96.60
2022-11-29T23:13:26.920Z,96.98
2022-11-29T23:16:39.098Z,91.10
2022-11-29T23:19:51.138Z,96.03
2022-11-29T23:23:03.034Z,119.33
2022-11-29T23:26:23.087Z,95.45
2022-11-29T23:29:35.025Z,88.60
2022-11-29T23:32:46.825Z,87.45
2022-11-29T23:36:04.988Z,87.40
2022-11-29T23:39:16.891Z,92.38
2022-11-29T23:42:28.664Z,90.95
2022-11-29T23:45:42.207Z,95.73
2022-11-29T23:48:54.297Z,90.78
2022-11-29T23:52:06.090Z,98.68
2022-11-29T23:55:19.957Z,92.35
2022-11-29T23:58:32.633Z,107.03
